sensor_id;sensor_type;location;lat;lon;timestamp;pressure;altitude;pressure_sealevel;temperature;humidity
48156;BME280;35568;48.104;11.782;2023-05-23T00:02:06;95079.73;;;15.97;52.35
48156;BME280;35568;48.104;11.782;2023-05-23T00:04:33;95076.65;;;15.86;52.58
48156;BME280;35568;48.104;11.782;2023-05-23T00:07:00;95077.98;;;15.93;52.48
48156;BME280;35568;48.104;11.782;2023-05-23T00:09:27;95080.91;;;15.82;52.54
48156;BME280;35568;48.104;11.782;2023-05-23T00:11:53;95085.98;;;15.86;52.40
48156;BME280;35568;48.104;11.782;2023-05-23T00:14:21;95088.98;;;15.90;52.47
48156;BME280;35568;48.104;11.782;2023-05-23T00:16:47;95098.60;;;15.77;52.61
48156;BME280;35568;48.104;11.782;2023-05-23T00:19:15;95093.09;;;15.97;52.71
48156;BME280;35568;48.104;11.782;2023-05-23T00:21:42;95089.55;;;15.58;53.00
48156;BME280;35568;48.104;11.782;2023-05-23T00:24:09;95093.54;;;15.65;52.84
48156;BME280;35568;48.104;11.782;2023-05-23T00:26:36;95094.64;;;15.63;52.96
48156;BME280;35568;48.104;11.782;2023-05-23T00:29:03;95096.05;;;15.79;52.81
48156;BME280;35568;48.104;11.782;2023-05-23T00:31:30;95097.42;;;15.61;52.91
48156;BME280;35568;48.104;11.782;2023-05-23T00:33:57;95098.48;;;15.65;52.92
48156;BME280;35568;48.104;11.782;2023-05-23T00:36:24;95099.69;;;15.53;53.15
48156;BME280;35568;48.104;11.782;2023-05-23T00:38:51;95099.73;;;15.97;53.17
48156;BME280;35568;48.104;11.782;2023-05-23T00:41:18;95097.77;;;15.40;53.27
48156;BME280;35568;48.104;11.782;2023-05-23T00:43:45;95098.98;;;15.38;53.28
48156;BME280;35568;48.104;11.782;2023-05-23T00:46:13;95101.87;;;15.42;53.26
48156;BME280;35568;48.104;11.782;2023-05-23T00:48:40;95100.94;;;15.49;53.15
48156;BME280;35568;48.104;11.782;2023-05-23T00:51:07;95102.90;;;15.79;53.11
48156;BME280;35568;48.104;11.782;2023-05-23T00:53:35;95103.12;;;15.82;53.08
48156;BME280;35568;48.104;11.782;2023-05-23T00:56:02;95104.49;;;15.69;52.93
48156;BME280;35568;48.104;11.782;2023-05-23T00:58:30;95104.80;;;15.66;52.79
48156;BME280;35568;48.104;11.782;2023-05-23T01:00:57;95102.16;;;16.26;52.74
48156;BME280;35568;48.104;11.782;2023-05-23T01:03:24;95102.95;;;15.75;52.72
48156;BME280;35568;48.104;11.782;2023-05-23T01:05:52;95104.33;;;15.83;52.65
48156;BME280;35568;48.104;11.782;2023-05-23T01:08:19;95105.11;;;15.92;52.38
48156;BME280;35568;48.104;11.782;2023-05-23T01:10:46;95103.45;;;15.95;52.44
48156;BME280;35568;48.104;11.782;2023-05-23T01:13:20;95103.56;;;15.96;52.43
48156;BME280;35568;48.104;11.782;2023-05-23T01:15:56;95101.74;;;16.13;52.05
48156;BME280;35568;48.104;11.782;2023-05-23T01:18:28;95103.85;;;16.14;52.03
48156;BME280;35568;48.104;11.782;2023-05-23T01:21:05;95105.18;;;15.87;52.04
48156;BME280;35568;48.104;11.782;2023-05-23T01:24:01;95109.65;;;16.30;52.07
48156;BME280;35568;48.104;11.782;2023-05-23T01:26:32;95109.67;;;16.08;51.93
48156;BME280;35568;48.104;11.782;2023-05-23T01:29:10;95111.92;;;16.18;51.87
48156;BME280;35568;48.104;11.782;2023-05-23T01:31:42;95113.24;;;15.92;51.89
48156;BME280;35568;48.104;11.782;2023-05-23T01:34:09;95113.80;;;16.03;51.66
48156;BME280;35568;48.104;11.782;2023-05-23T01:36:40;95116.07;;;16.32;51.69
48156;BME280;35568;48.104;11.782;2023-05-23T01:39:07;95116.79;;;16.37;51.49
48156;BME280;35568;48.104;11.782;2023-05-23T01:41:34;95117.33;;;16.16;51.45
48156;BME280;35568;48.104;11.782;2023-05-23T01:44:02;95117.01;;;16.47;51.42
48156;BME280;35568;48.104;11.782;2023-05-23T01:46:30;95119.64;;;16.48;51.41
48156;BME280;35568;48.104;11.782;2023-05-23T01:48:58;95120.31;;;16.21;51.36
48156;BME280;35568;48.104;11.782;2023-05-23T01:51:26;95121.07;;;16.31;51.12
48156;BME280;35568;48.104;11.782;2023-05-23T01:53:53;95121.19;;;16.34;51.20
48156;BME280;35568;48.104;11.782;2023-05-23T01:56:21;95117.95;;;16.61;51.19
48156;BME280;35568;48.104;11.782;2023-05-23T01:58:48;95118.78;;;16.36;51.22
48156;BME280;35568;48.104;11.782;2023-05-23T02:01:16;95122.78;;;16.49;50.94
48156;BME280;35568;48.104;11.782;2023-05-23T02:03:43;95127.56;;;16.63;51.09
48156;BME280;35568;48.104;11.782;2023-05-23T02:06:10;95131.24;;;16.60;51.17
48156;BME280;35568;48.104;11.782;2023-05-23T02:08:37;95130.38;;;16.44;51.06
48156;BME280;35568;48.104;11.782;2023-05-23T02:11:04;95130.12;;;16.60;50.67
48156;BME280;35568;48.104;11.782;2023-05-23T02:13:31;95138.43;;;16.83;50.64
48156;BME280;35568;48.104;11.782;2023-05-23T02:15:58;95139.28;;;16.79;50.73
48156;BME280;35568;48.104;11.782;2023-05-23T02:18:25;95141.46;;;16.64;50.51
48156;BME280;35568;48.104;11.782;2023-05-23T02:20:52;95143.67;;;16.64;50.65
48156;BME280;35568;48.104;11.782;2023-05-23T02:23:18;95144.24;;;16.59;50.80
48156;BME280;35568;48.104;11.782;2023-05-23T02:25:46;95150.33;;;16.47;50.63
48156;BME280;35568;48.104;11.782;2023-05-23T02:28:13;95154.98;;;16.65;51.43
48156;BME280;35568;48.104;11.782;2023-05-23T02:30:39;95155.13;;;16.79;52.95
48156;BME280;35568;48.104;11.782;2023-05-23T02:33:06;95152.02;;;16.52;53.44
48156;BME280;35568;48.104;11.782;2023-05-23T02:35:34;95150.39;;;16.75;53.92
48156;BME280;35568;48.104;11.782;2023-05-23T02:38:01;95149.92;;;16.41;54.25
48156;BME280;35568;48.104;11.782;2023-05-23T02:40:28;95147.47;;;16.58;54.68
48156;BME280;35568;48.104;11.782;2023-05-23T02:42:55;95153.43;;;16.43;55.25
48156;BME280;35568;48.104;11.782;2023-05-23T02:45:22;95157.24;;;16.29;55.69
48156;BME280;35568;48.104;11.782;2023-05-23T02:47:50;95159.72;;;16.26;55.91
48156;BME280;35568;48.104;11.782;2023-05-23T02:50:17;95163.64;;;16.19;56.04
48156;BME280;35568;48.104;11.782;2023-05-23T02:52:44;95166.88;;;16.35;55.96
48156;BME280;35568;48.104;11.782;2023-05-23T02:55:11;95162.57;;;16.05;56.40
48156;BME280;35568;48.104;11.782;2023-05-23T02:57:38;95161.98;;;15.89;56.49
48156;BME280;35568;48.104;11.782;2023-05-23T03:03:00;95160.30;;;16.24;56.09
48156;BME280;35568;48.104;11.782;2023-05-23T03:05:27;95167.80;;;15.99;55.57
48156;BME280;35568;48.104;11.782;2023-05-23T03:07:54;95162.53;;;16.10;56.11
48156;BME280;35568;48.104;11.782;2023-05-23T03:10:22;95155.70;;;15.94;56.32
48156;BME280;35568;48.104;11.782;2023-05-23T03:12:49;95158.61;;;16.12;56.02
48156;BME280;35568;48.104;11.782;2023-05-23T03:15:17;95151.93;;;16.12;56.04
48156;BME280;35568;48.104;11.782;2023-05-23T03:17:44;95150.33;;;16.07;55.70
48156;BME280;35568;48.104;11.782;2023-05-23T03:20:11;95150.77;;;15.62;55.88
48156;BME280;35568;48.104;11.782;2023-05-23T03:22:37;95151.73;;;15.79;55.85
48156;BME280;35568;48.104;11.782;2023-05-23T03:25:05;95152.83;;;15.76;55.92
48156;BME280;35568;48.104;11.782;2023-05-23T03:27:32;95151.70;;;15.83;55.91
48156;BME280;35568;48.104;11.782;2023-05-23T03:29:59;95153.89;;;15.80;56.04
48156;BME280;35568;48.104;11.782;2023-05-23T03:32:26;95153.57;;;15.95;56.43
48156;BME280;35568;48.104;11.782;2023-05-23T03:34:53;95157.21;;;15.32;56.66
48156;BME280;35568;48.104;11.782;2023-05-23T03:37:20;95160.34;;;15.67;56.36
48156;BME280;35568;48.104;11.782;2023-05-23T03:39:47;95165.00;;;15.33;56.48
48156;BME280;35568;48.104;11.782;2023-05-23T03:42:15;95169.69;;;15.37;56.44
48156;BME280;35568;48.104;11.782;2023-05-23T03:44:41;95174.00;;;15.34;56.39
48156;BME280;35568;48.104;11.782;2023-05-23T03:47:08;95176.58;;;15.29;56.53
48156;BME280;35568;48.104;11.782;2023-05-23T03:49:35;95177.22;;;15.49;56.71
48156;BME280;35568;48.104;11.782;2023-05-23T03:52:01;95177.91;;;15.34;57.06
48156;BME280;35568;48.104;11.782;2023-05-23T03:54:28;95179.43;;;15.41;57.04
48156;BME280;35568;48.104;11.782;2023-05-23T03:56:55;95180.46;;;15.44;57.06
48156;BME280;35568;48.104;11.782;2023-05-23T03:59:22;95179.16;;;15.48;57.23
48156;BME280;35568;48.104;11.782;2023-05-23T04:01:50;95179.95;;;15.31;56.81
48156;BME280;35568;48.104;11.782;2023-05-23T04:04:17;95181.80;;;15.26;56.90
48156;BME280;35568;48.104;11.782;2023-05-23T04:06:44;95183.64;;;15.38;56.77
48156;BME280;35568;48.104;11.782;2023-05-23T04:09:11;95186.32;;;15.34;56.80
48156;BME280;35568;48.104;11.782;2023-05-23T04:11:38;95187.46;;;15.86;56.86
48156;BME280;35568;48.104;11.782;2023-05-23T04:14:05;95192.60;;;15.49;56.97
48156;BME280;35568;48.104;11.782;2023-05-23T04:16:32;95189.97;;;15.39;57.16
48156;BME280;35568;48.104;11.782;2023-05-23T04:18:59;95192.70;;;15.47;57.08
48156;BME280;35568;48.104;11.782;2023-05-23T04:21:26;95193.73;;;15.29;57.06
48156;BME280;35568;48.104;11.782;2023-05-23T04:23:53;95195.03;;;15.48;57.40
48156;BME280;35568;48.104;11.782;2023-05-23T04:26:21;95195.64;;;15.47;57.03
48156;BME280;35568;48.104;11.782;2023-05-23T04:28:47;95196.62;;;15.14;57.09
48156;BME280;35568;48.104;11.782;2023-05-23T04:31:14;95201.19;;;15.04;57.35
48156;BME280;35568;48.104;11.782;2023-05-23T04:33:41;95204.73;;;15.64;57.34
48156;BME280;35568;48.104;11.782;2023-05-23T04:36:08;95212.55;;;15.40;57.60
48156;BME280;35568;48.104;11.782;2023-05-23T04:38:35;95216.63;;;15.30;57.33
48156;BME280;35568;48.104;11.782;2023-05-23T04:41:03;95218.08;;;15.67;56.78
48156;BME280;35568;48.104;11.782;2023-05-23T04:43:29;95221.29;;;15.65;56.64
48156;BME280;35568;48.104;11.782;2023-05-23T04:45:57;95223.39;;;15.64;56.93
48156;BME280;35568;48.104;11.782;2023-05-23T04:48:24;95227.30;;;15.88;56.51
48156;BME280;35568;48.104;11.782;2023-05-23T04:50:52;95226.21;;;15.90;56.50
48156;BME280;35568;48.104;11.782;2023-05-23T04:53:19;95218.26;;;15.90;56.48
48156;BME280;35568;48.104;11.782;2023-05-23T04:55:45;95213.85;;;15.99;56.45
48156;BME280;35568;48.104;11.782;2023-05-23T04:58:12;95213.20;;;16.10;56.38
48156;BME280;35568;48.104;11.782;2023-05-23T05:00:40;95206.80;;;16.27;55.90
48156;BME280;35568;48.104;11.782;2023-05-23T05:03:07;95206.83;;;16.29;55.94
48156;BME280;35568;48.104;11.782;2023-05-23T05:05:34;95204.44;;;16.09;55.88
48156;BME280;35568;48.104;11.782;2023-05-23T05:08:01;95206.97;;;16.40;55.76
48156;BME280;35568;48.104;11.782;2023-05-23T05:10:28;95207.68;;;16.41;55.13
48156;BME280;35568;48.104;11.782;2023-05-23T05:12:55;95211.99;;;16.18;55.08
48156;BME280;35568;48.104;11.782;2023-05-23T05:15:22;95212.39;;;16.83;54.87
48156;BME280;35568;48.104;11.782;2023-05-23T05:17:49;95213.03;;;16.65;54.60
48156;BME280;35568;48.104;11.782;2023-05-23T05:20:16;95211.97;;;16.88;54.30
48156;BME280;35568;48.104;11.782;2023-05-23T05:22:44;95215.13;;;16.79;54.13
48156;BME280;35568;48.104;11.782;2023-05-23T05:25:11;95215.79;;;16.98;53.88
48156;BME280;35568;48.104;11.782;2023-05-23T05:27:38;95214.67;;;17.21;53.60
48156;BME280;35568;48.104;11.782;2023-05-23T05:30:07;95214.14;;;16.88;53.87
48156;BME280;35568;48.104;11.782;2023-05-23T05:32:34;95217.76;;;17.11;53.74
48156;BME280;35568;48.104;11.782;2023-05-23T05:35:02;95220.77;;;16.60;53.27
48156;BME280;35568;48.104;11.782;2023-05-23T05:37:29;95219.55;;;17.68;52.66
48156;BME280;35568;48.104;11.782;2023-05-23T05:39:56;95215.07;;;17.25;53.32
48156;BME280;35568;48.104;11.782;2023-05-23T05:42:23;95214.02;;;17.48;53.19
48156;BME280;35568;48.104;11.782;2023-05-23T05:44:50;95207.63;;;17.08;53.61
48156;BME280;35568;48.104;11.782;2023-05-23T05:47:17;95207.49;;;16.96;53.36
48156;BME280;35568;48.104;11.782;2023-05-23T05:49:44;95205.22;;;17.40;52.98
48156;BME280;35568;48.104;11.782;2023-05-23T05:52:10;95205.50;;;17.52;52.76
48156;BME280;35568;48.104;11.782;2023-05-23T05:54:37;95206.36;;;17.56;52.86
48156;BME280;35568;48.104;11.782;2023-05-23T05:57:04;95205.83;;;17.58;52.56
48156;BME280;35568;48.104;11.782;2023-05-23T05:59:31;95211.81;;;17.98;52.08
48156;BME280;35568;48.104;11.782;2023-05-23T06:01:58;95213.43;;;18.51;51.66
48156;BME280;35568;48.104;11.782;2023-05-23T06:04:25;95213.49;;;18.26;51.28
48156;BME280;35568;48.104;11.782;2023-05-23T06:06:51;95227.32;;;18.73;50.44
48156;BME280;35568;48.104;11.782;2023-05-23T06:09:19;95229.50;;;18.26;50.46
48156;BME280;35568;48.104;11.782;2023-05-23T06:11:45;95229.76;;;18.52;50.38
48156;BME280;35568;48.104;11.782;2023-05-23T06:14:12;95226.83;;;18.71;50.05
48156;BME280;35568;48.104;11.782;2023-05-23T06:16:39;95227.28;;;18.60;50.23
48156;BME280;35568;48.104;11.782;2023-05-23T06:19:06;95233.55;;;18.52;50.42
48156;BME280;35568;48.104;11.782;2023-05-23T06:21:33;95235.49;;;18.39;50.36
48156;BME280;35568;48.104;11.782;2023-05-23T06:24:00;95237.36;;;18.64;50.44
48156;BME280;35568;48.104;11.782;2023-05-23T06:26:27;95235.98;;;18.73;50.44
48156;BME280;35568;48.104;11.782;2023-05-23T06:28:54;95232.81;;;19.23;49.13
48156;BME280;35568;48.104;11.782;2023-05-23T06:31:21;95236.25;;;19.49;49.13
48156;BME280;35568;48.104;11.782;2023-05-23T06:33:49;95232.23;;;19.54;49.31
48156;BME280;35568;48.104;11.782;2023-05-23T06:36:16;95231.70;;;19.95;48.37
48156;BME280;35568;48.104;11.782;2023-05-23T06:38:43;95233.46;;;19.37;48.28
48156;BME280;35568;48.104;11.782;2023-05-23T06:41:10;95237.66;;;19.99;48.05
48156;BME280;35568;48.104;11.782;2023-05-23T06:43:37;95236.55;;;20.13;47.70
48156;BME280;35568;48.104;11.782;2023-05-23T06:46:04;95238.81;;;20.11;47.76
48156;BME280;35568;48.104;11.782;2023-05-23T06:48:32;95236.60;;;20.36;47.30
48156;BME280;35568;48.104;11.782;2023-05-23T06:50:59;95237.23;;;20.75;46.98
48156;BME280;35568;48.104;11.782;2023-05-23T06:53:26;95235.36;;;21.23;45.95
48156;BME280;35568;48.104;11.782;2023-05-23T06:55:54;95236.49;;;21.03;45.59
48156;BME280;35568;48.104;11.782;2023-05-23T06:58:21;95240.67;;;20.96;45.42
48156;BME280;35568;48.104;11.782;2023-05-23T07:00:49;95243.08;;;21.11;45.16
48156;BME280;35568;48.104;11.782;2023-05-23T07:03:16;95244.91;;;20.98;44.94
48156;BME280;35568;48.104;11.782;2023-05-23T07:05:43;95249.72;;;21.12;45.68
48156;BME280;35568;48.104;11.782;2023-05-23T07:08:10;95254.62;;;21.14;45.22
48156;BME280;35568;48.104;11.782;2023-05-23T07:10:37;95253.61;;;21.50;44.66
48156;BME280;35568;48.104;11.782;2023-05-23T07:13:04;95249.27;;;21.65;44.07
48156;BME280;35568;48.104;11.782;2023-05-23T07:15:31;95244.76;;;21.94;43.26
48156;BME280;35568;48.104;11.782;2023-05-23T07:17:58;95244.73;;;21.87;43.44
48156;BME280;35568;48.104;11.782;2023-05-23T07:20:25;95245.90;;;22.44;42.75
48156;BME280;35568;48.104;11.782;2023-05-23T07:22:52;95244.93;;;22.88;42.52
48156;BME280;35568;48.104;11.782;2023-05-23T07:25:19;95243.85;;;23.02;42.29
48156;BME280;35568;48.104;11.782;2023-05-23T07:27:46;95249.94;;;23.18;41.55
48156;BME280;35568;48.104;11.782;2023-05-23T07:30:13;95248.68;;;23.02;41.92
48156;BME280;35568;48.104;11.782;2023-05-23T07:32:40;95251.27;;;22.79;41.30
48156;BME280;35568;48.104;11.782;2023-05-23T07:35:08;95255.33;;;22.82;42.69
48156;BME280;35568;48.104;11.782;2023-05-23T07:37:35;95255.02;;;22.07;42.79
48156;BME280;35568;48.104;11.782;2023-05-23T07:40:04;95259.07;;;22.41;42.98
48156;BME280;35568;48.104;11.782;2023-05-23T07:42:31;95262.27;;;22.22;43.12
48156;BME280;35568;48.104;11.782;2023-05-23T07:44:58;95265.49;;;21.90;43.14
48156;BME280;35568;48.104;11.782;2023-05-23T07:47:25;95262.65;;;21.94;43.11
48156;BME280;35568;48.104;11.782;2023-05-23T07:49:52;95257.86;;;22.10;43.74
48156;BME280;35568;48.104;11.782;2023-05-23T07:52:19;95262.25;;;22.16;43.47
48156;BME280;35568;48.104;11.782;2023-05-23T07:54:46;95262.38;;;21.99;43.31
48156;BME280;35568;48.104;11.782;2023-05-23T07:57:13;95261.51;;;21.83;43.21
48156;BME280;35568;48.104;11.782;2023-05-23T07:59:40;95264.21;;;22.06;43.48
48156;BME280;35568;48.104;11.782;2023-05-23T08:02:08;95263.81;;;21.99;43.72
48156;BME280;35568;48.104;11.782;2023-05-23T08:04:34;95261.64;;;22.98;42.20
48156;BME280;35568;48.104;11.782;2023-05-23T08:07:01;95261.27;;;23.10;41.33
48156;BME280;35568;48.104;11.782;2023-05-23T08:09:29;95257.34;;;23.47;41.19
48156;BME280;35568;48.104;11.782;2023-05-23T08:11:55;95262.08;;;24.04;40.88
48156;BME280;35568;48.104;11.782;2023-05-23T08:14:22;95262.92;;;23.21;40.85
48156;BME280;35568;48.104;11.782;2023-05-23T08:16:49;95264.75;;;22.95;42.07
48156;BME280;35568;48.104;11.782;2023-05-23T08:19:16;95269.00;;;22.55;42.56
48156;BME280;35568;48.104;11.782;2023-05-23T08:21:45;95272.97;;;22.66;42.64
48156;BME280;35568;48.104;11.782;2023-05-23T08:24:12;95273.58;;;22.49;42.53
48156;BME280;35568;48.104;11.782;2023-05-23T08:26:40;95275.51;;;22.59;42.55
48156;BME280;35568;48.104;11.782;2023-05-23T08:29:07;95281.23;;;22.48;42.57
48156;BME280;35568;48.104;11.782;2023-05-23T08:31:34;95279.90;;;22.53;42.35
48156;BME280;35568;48.104;11.782;2023-05-23T08:34:01;95280.39;;;22.53;42.20
48156;BME280;35568;48.104;11.782;2023-05-23T08:36:28;95280.35;;;22.40;42.32
48156;BME280;35568;48.104;11.782;2023-05-23T08:38:55;95283.81;;;22.23;42.91
48156;BME280;35568;48.104;11.782;2023-05-23T08:41:23;95283.51;;;22.44;42.66
48156;BME280;35568;48.104;11.782;2023-05-23T08:43:50;95281.38;;;22.35;42.55
48156;BME280;35568;48.104;11.782;2023-05-23T08:46:17;95283.37;;;22.40;42.20
48156;BME280;35568;48.104;11.782;2023-05-23T08:48:50;95283.25;;;22.53;42.43
48156;BME280;35568;48.104;11.782;2023-05-23T08:51:21;95284.94;;;22.78;42.19
48156;BME280;35568;48.104;11.782;2023-05-23T08:53:48;95289.94;;;23.02;42.05
48156;BME280;35568;48.104;11.782;2023-05-23T08:56:15;95293.42;;;22.80;41.37
48156;BME280;35568;48.104;11.782;2023-05-23T08:58:42;95293.15;;;22.39;41.70
48156;BME280;35568;48.104;11.782;2023-05-23T09:01:09;95295.18;;;22.35;42.22
48156;BME280;35568;48.104;11.782;2023-05-23T09:03:36;95292.89;;;22.30;42.74
48156;BME280;35568;48.104;11.782;2023-05-23T09:06:05;95293.19;;;22.27;42.45
48156;BME280;35568;48.104;11.782;2023-05-23T09:08:32;95290.39;;;22.69;42.43
48156;BME280;35568;48.104;11.782;2023-05-23T09:11:00;95289.34;;;22.67;42.37
48156;BME280;35568;48.104;11.782;2023-05-23T09:13:27;95292.23;;;22.38;42.12
48156;BME280;35568;48.104;11.782;2023-05-23T09:15:57;95296.24;;;22.51;42.01
48156;BME280;35568;48.104;11.782;2023-05-23T09:18:27;95299.71;;;22.08;42.25
48156;BME280;35568;48.104;11.782;2023-05-23T09:20:59;95304.81;;;22.03;42.85
48156;BME280;35568;48.104;11.782;2023-05-23T09:23:29;95307.22;;;22.37;42.97
48156;BME280;35568;48.104;11.782;2023-05-23T09:25:56;95306.65;;;22.34;42.42
48156;BME280;35568;48.104;11.782;2023-05-23T09:28:23;95305.18;;;22.84;41.70
48156;BME280;35568;48.104;11.782;2023-05-23T09:30:57;95311.11;;;22.79;41.15
48156;BME280;35568;48.104;11.782;2023-05-23T09:33:32;95310.04;;;23.14;40.72
48156;BME280;35568;48.104;11.782;2023-05-23T09:35:59;95307.73;;;22.53;41.14
48156;BME280;35568;48.104;11.782;2023-05-23T09:38:27;95303.97;;;22.74;41.30
48156;BME280;35568;48.104;11.782;2023-05-23T09:40:54;95301.50;;;22.49;41.72
48156;BME280;35568;48.104;11.782;2023-05-23T09:43:21;95301.31;;;22.30;41.71
48156;BME280;35568;48.104;11.782;2023-05-23T09:45:49;95297.57;;;22.91;41.61
48156;BME280;35568;48.104;11.782;2023-05-23T09:48:16;95300.21;;;23.61;40.56
48156;BME280;35568;48.104;11.782;2023-05-23T09:50:44;95298.33;;;24.30;39.24
48156;BME280;35568;48.104;11.782;2023-05-23T09:53:12;95298.65;;;24.79;38.91
48156;BME280;35568;48.104;11.782;2023-05-23T09:55:39;95302.38;;;24.57;37.92
48156;BME280;35568;48.104;11.782;2023-05-23T09:58:07;95305.69;;;25.24;37.48
48156;BME280;35568;48.104;11.782;2023-05-23T10:00:34;95305.18;;;24.91;36.97
48156;BME280;35568;48.104;11.782;2023-05-23T10:03:09;95300.60;;;24.73;37.50
48156;BME280;35568;48.104;11.782;2023-05-23T10:05:40;95299.14;;;24.77;38.08
48156;BME280;35568;48.104;11.782;2023-05-23T10:08:13;95300.64;;;24.88;37.93
48156;BME280;35568;48.104;11.782;2023-05-23T10:12:37;95297.89;;;25.10;37.62
48156;BME280;35568;48.104;11.782;2023-05-23T10:15:08;95296.01;;;25.16;36.65
48156;BME280;35568;48.104;11.782;2023-05-23T10:17:43;95293.27;;;25.13;37.05
48156;BME280;35568;48.104;11.782;2023-05-23T10:20:15;95291.18;;;25.11;36.64
48156;BME280;35568;48.104;11.782;2023-05-23T10:22:43;95289.46;;;25.21;36.96
48156;BME280;35568;48.104;11.782;2023-05-23T10:25:10;95284.90;;;24.83;36.64
48156;BME280;35568;48.104;11.782;2023-05-23T10:27:39;95281.46;;;24.59;37.75
48156;BME280;35568;48.104;11.782;2023-05-23T10:30:07;95283.43;;;24.63;37.97
48156;BME280;35568;48.104;11.782;2023-05-23T10:32:37;95287.92;;;24.56;37.47
48156;BME280;35568;48.104;11.782;2023-05-23T10:35:11;95285.89;;;24.64;37.96
48156;BME280;35568;48.104;11.782;2023-05-23T10:37:47;95288.80;;;24.58;37.42
48156;BME280;35568;48.104;11.782;2023-05-23T10:40:21;95285.84;;;24.76;37.30
48156;BME280;35568;48.104;11.782;2023-05-23T10:43:01;95287.50;;;24.28;37.80
48156;BME280;35568;48.104;11.782;2023-05-23T10:45:39;95288.44;;;24.48;37.83
48156;BME280;35568;48.104;11.782;2023-05-23T10:48:19;95291.02;;;24.24;38.67
48156;BME280;35568;48.104;11.782;2023-05-23T10:51:01;95294.13;;;24.23;38.77
48156;BME280;35568;48.104;11.782;2023-05-23T10:53:29;95297.69;;;25.27;37.50
48156;BME280;35568;48.104;11.782;2023-05-23T10:55:57;95296.63;;;25.93;36.79
48156;BME280;35568;48.104;11.782;2023-05-23T10:58:24;95296.43;;;25.63;36.47
48156;BME280;35568;48.104;11.782;2023-05-23T11:00:52;95295.30;;;26.06;36.32
48156;BME280;35568;48.104;11.782;2023-05-23T11:03:29;95296.38;;;26.22;35.14
48156;BME280;35568;48.104;11.782;2023-05-23T11:05:57;95290.00;;;26.30;34.86
48156;BME280;35568;48.104;11.782;2023-05-23T11:08:24;95289.30;;;26.27;34.74
48156;BME280;35568;48.104;11.782;2023-05-23T11:10:53;95282.76;;;26.22;34.64
48156;BME280;35568;48.104;11.782;2023-05-23T11:13:21;95281.21;;;25.66;35.34
48156;BME280;35568;48.104;11.782;2023-05-23T11:15:49;95281.70;;;25.54;35.67
48156;BME280;35568;48.104;11.782;2023-05-23T11:18:22;95283.17;;;24.74;36.42
48156;BME280;35568;48.104;11.782;2023-05-23T11:20:51;95281.45;;;24.54;36.81
48156;BME280;35568;48.104;11.782;2023-05-23T11:23:20;95284.30;;;24.38;37.00
48156;BME280;35568;48.104;11.782;2023-05-23T11:25:49;95284.48;;;24.86;36.34
48156;BME280;35568;48.104;11.782;2023-05-23T11:28:17;95277.48;;;25.68;35.56
48156;BME280;35568;48.104;11.782;2023-05-23T11:30:47;95271.86;;;26.25;34.62
48156;BME280;35568;48.104;11.782;2023-05-23T11:33:15;95256.97;;;27.31;33.54
48156;BME280;35568;48.104;11.782;2023-05-23T11:35:46;95253.73;;;28.13;31.81
48156;BME280;35568;48.104;11.782;2023-05-23T11:38:14;95251.93;;;28.39;31.06
48156;BME280;35568;48.104;11.782;2023-05-23T11:40:43;95241.19;;;28.83;29.77
48156;BME280;35568;48.104;11.782;2023-05-23T11:43:13;95242.32;;;28.04;31.22
48156;BME280;35568;48.104;11.782;2023-05-23T11:45:40;95238.97;;;28.96;30.65
48156;BME280;35568;48.104;11.782;2023-05-23T11:48:09;95241.66;;;28.84;30.39
48156;BME280;35568;48.104;11.782;2023-05-23T11:50:45;95243.39;;;28.25;29.94
48156;BME280;35568;48.104;11.782;2023-05-23T11:53:14;95246.07;;;27.95;30.35
48156;BME280;35568;48.104;11.782;2023-05-23T11:55:48;95251.17;;;28.67;30.12
48156;BME280;35568;48.104;11.782;2023-05-23T11:58:15;95252.40;;;29.04;29.30
48156;BME280;35568;48.104;11.782;2023-05-23T12:00:43;95252.84;;;29.10;28.49
48156;BME280;35568;48.104;11.782;2023-05-23T12:03:10;95253.52;;;29.72;28.04
48156;BME280;35568;48.104;11.782;2023-05-23T12:05:37;95257.26;;;30.08;27.77
48156;BME280;35568;48.104;11.782;2023-05-23T12:08:04;95259.74;;;30.29;27.46
48156;BME280;35568;48.104;11.782;2023-05-23T12:10:31;95261.70;;;30.74;27.46
48156;BME280;35568;48.104;11.782;2023-05-23T12:12:59;95257.77;;;29.69;27.45
48156;BME280;35568;48.104;11.782;2023-05-23T12:15:26;95258.12;;;28.42;28.91
48156;BME280;35568;48.104;11.782;2023-05-23T12:17:53;95255.29;;;28.31;29.77
48156;BME280;35568;48.104;11.782;2023-05-23T12:20:20;95256.65;;;27.69;30.38
48156;BME280;35568;48.104;11.782;2023-05-23T12:22:48;95255.08;;;28.83;29.27
48156;BME280;35568;48.104;11.782;2023-05-23T12:25:15;95254.90;;;29.40;28.44
48156;BME280;35568;48.104;11.782;2023-05-23T12:27:42;95254.18;;;28.00;29.48
48156;BME280;35568;48.104;11.782;2023-05-23T12:30:12;95252.36;;;27.64;31.01
48156;BME280;35568;48.104;11.782;2023-05-23T12:32:39;95252.10;;;26.74;32.03
48156;BME280;35568;48.104;11.782;2023-05-23T12:35:09;95256.94;;;26.57;32.12
48156;BME280;35568;48.104;11.782;2023-05-23T12:37:38;95254.39;;;28.01;30.86
48156;BME280;35568;48.104;11.782;2023-05-23T12:40:10;95251.22;;;28.53;29.66
48156;BME280;35568;48.104;11.782;2023-05-23T12:42:49;95249.00;;;28.86;29.18
48156;BME280;35568;48.104;11.782;2023-05-23T12:45:16;95252.96;;;28.23;29.50
48156;BME280;35568;48.104;11.782;2023-05-23T12:47:43;95257.09;;;27.50;30.65
48156;BME280;35568;48.104;11.782;2023-05-23T12:50:10;95254.74;;;26.36;32.18
48156;BME280;35568;48.104;11.782;2023-05-23T12:52:38;95253.79;;;26.18;32.71
48156;BME280;35568;48.104;11.782;2023-05-23T12:55:06;95261.66;;;25.91;33.31
48156;BME280;35568;48.104;11.782;2023-05-23T12:57:33;95258.39;;;26.41;33.31
48156;BME280;35568;48.104;11.782;2023-05-23T13:00:00;95254.23;;;27.02;31.77